createdAt,value
2017-12-28T00:00:02.955Z,0
2017-12-28T00:01:03.988Z,0
2017-12-28T00:02:03.535Z,0
2017-12-28T00:03:03.499Z,0
2017-12-28T00:04:03.643Z,0
2017-12-28T00:05:03.831Z,0
2017-12-28T00:06:03.825Z,0
2017-12-28T00:07:04.177Z,0
2017-12-28T00:08:04.147Z,0
2017-12-28T00:09:04.142Z,0
2017-12-28T00:10:03.867Z,0
2017-12-28T00:11:04.161Z,0
2017-12-28T00:12:04.527Z,0
2017-12-28T00:13:05.469Z,0
2017-12-28T00:14:04.948Z,0
2017-12-28T00:15:04.990Z,0
2017-12-28T00:16:05.386Z,0
2017-12-28T00:17:05.145Z,0
2017-12-28T00:18:06.042Z,0
2017-12-28T00:19:05.950Z,0
2017-12-28T00:20:05.707Z,0
2017-12-28T00:21:05.077Z,0
2017-12-28T00:22:04.694Z,0
2017-12-28T00:23:05.028Z,0
2017-12-28T00:24:04.554Z,0
2017-12-28T00:25:05.371Z,0
2017-12-28T00:26:05.153Z,0
2017-12-28T00:27:04.851Z,0
2017-12-28T00:28:05.547Z,0
2017-12-28T00:29:04.972Z,0
2017-12-28T00:30:05.164Z,0
2017-12-28T00:31:06.070Z,0
2017-12-28T00:32:06.465Z,0
2017-12-28T00:33:05.989Z,0
2017-12-28T00:34:05.491Z,0
2017-12-28T00:35:06.060Z,0
2017-12-28T00:36:06.396Z,0
2017-12-28T00:37:06.233Z,0
2017-12-28T00:38:06.118Z,0
2017-12-28T00:39:07.165Z,0
2017-12-28T00:40:06.336Z,0
2017-12-28T00:41:06.582Z,0
2017-12-28T00:42:06.075Z,0
2017-12-28T00:43:07.967Z,0
2017-12-28T00:44:07.140Z,0
2017-12-28T00:45:07.585Z,0
2017-12-28T00:46:06.921Z,0
2017-12-28T00:47:07.243Z,0
2017-12-28T00:48:07.532Z,0
2017-12-28T00:49:07.459Z,0
2017-12-28T00:50:08.177Z,0
2017-12-28T00:51:08.147Z,0
2017-12-28T00:52:08.668Z,0
2017-12-28T00:53:08.840Z,0
2017-12-28T00:54:08.798Z,0
2017-12-28T00:55:09.630Z,0
2017-12-28T00:56:09.216Z,0
2017-12-28T00:57:09.715Z,0
2017-12-28T00:58:09.653Z,0
2017-12-28T00:59:09.957Z,0
2017-12-28T01:00:09.957Z,0
2017-12-28T01:01:10.197Z,0
2017-12-28T01:02:10.223Z,0
2017-12-28T01:03:11.002Z,0
2017-12-28T01:04:10.701Z,0
2017-12-28T01:05:11.169Z,0
2017-12-28T01:06:10.919Z,0
2017-12-28T01:07:11.439Z,0
2017-12-28T01:08:11.822Z,0
2017-12-28T01:09:11.341Z,0
2017-12-28T01:10:11.641Z,0
2017-12-28T01:11:11.634Z,0
2017-12-28T01:12:11.885Z,0
2017-12-28T01:13:13.502Z,0
2017-12-28T01:14:13.119Z,0
2017-12-28T01:15:13.048Z,0
2017-12-28T01:16:13.252Z,0
2017-12-28T01:17:14.463Z,0
2017-12-28T01:18:14.283Z,0
2017-12-28T01:19:15.508Z,0
2017-12-28T01:20:13.325Z,0
2017-12-28T01:21:14.252Z,0
2017-12-28T01:22:13.764Z,0
2017-12-28T01:23:14.581Z,0
2017-12-28T01:24:14.222Z,0
2017-12-28T01:25:14.118Z,0
2017-12-28T01:26:14.985Z,0
2017-12-28T01:27:15.121Z,0
2017-12-28T01:28:14.615Z,0
2017-12-28T01:29:15.381Z,0
2017-12-28T01:30:15.235Z,0
2017-12-28T01:31:14.763Z,0
2017-12-28T01:32:14.468Z,0
2017-12-28T01:33:15.099Z,0
2017-12-28T01:34:15.092Z,0
2017-12-28T01:35:14.581Z,0
2017-12-28T01:36:15.093Z,0
2017-12-28T01:37:14.939Z,0
2017-12-28T01:38:14.869Z,0
2017-12-28T01:39:14.752Z,0
2017-12-28T01:40:16.562Z,0
2017-12-28T01:41:15.306Z,0
2017-12-28T01:42:15.299Z,0
2017-12-28T01:43:14.824Z,0
2017-12-28T01:44:14.881Z,0
2017-12-28T01:45:15.407Z,0
2017-12-28T01:46:15.462Z,0
2017-12-28T01:47:15.532Z,0
2017-12-28T01:48:16.330Z,0
2017-12-28T01:49:16.106Z,0
2017-12-28T01:50:16.984Z,0
2017-12-28T01:51:15.653Z,0
2017-12-28T01:52:15.786Z,0
2017-12-28T01:53:16.251Z,0
2017-12-28T01:54:16.064Z,0
2017-12-28T01:55:16.080Z,0
2017-12-28T01:56:15.972Z,0
2017-12-28T01:57:16.676Z,0
2017-12-28T01:58:16.092Z,0
2017-12-28T01:59:16.992Z,0
2017-12-28T02:00:16.734Z,0
2017-12-28T02:01:16.722Z,0
2017-12-28T02:02:16.500Z,0
2017-12-28T02:03:16.820Z,0
2017-12-28T02:04:17.112Z,0
2017-12-28T02:05:17.177Z,0
2017-12-28T02:06:17.168Z,0
2017-12-28T02:07:16.587Z,0
2017-12-28T02:08:17.165Z,0
2017-12-28T02:09:16.950Z,0
2017-12-28T02:10:17.219Z,0
2017-12-28T02:11:17.298Z,0
2017-12-28T02:12:17.407Z,0
2017-12-28T02:13:16.917Z,0
2017-12-28T02:14:17.393Z,0
2017-12-28T02:15:17.366Z,0
2017-12-28T02:16:17.993Z,0
2017-12-28T02:17:17.957Z,0
2017-12-28T02:18:18.182Z,0
2017-12-28T02:19:18.957Z,0
2017-12-28T02:20:18.117Z,0
2017-12-28T02:21:18.272Z,0
2017-12-28T02:22:18.087Z,0
2017-12-28T02:23:18.054Z,0
2017-12-28T02:24:19.711Z,0
2017-12-28T02:25:18.577Z,0
2017-12-28T02:26:19.121Z,0
2017-12-28T02:27:18.844Z,0
2017-12-28T02:28:19.175Z,0
2017-12-28T02:29:18.887Z,0
2017-12-28T02:30:20.133Z,0
2017-12-28T02:31:19.926Z,0
2017-12-28T02:32:19.636Z,0
2017-12-28T02:33:19.746Z,0
2017-12-28T02:34:19.681Z,0
2017-12-28T02:35:19.907Z,0
2017-12-28T02:36:20.284Z,0
2017-12-28T02:37:20.480Z,0
2017-12-28T02:38:20.239Z,0
2017-12-28T02:39:20.246Z,0
2017-12-28T02:40:21.246Z,0
2017-12-28T02:41:20.481Z,0
2017-12-28T02:42:21.008Z,0
2017-12-28T02:43:21.218Z,0
2017-12-28T02:44:21.480Z,0
2017-12-28T02:45:21.394Z,0
2017-12-28T02:46:21.006Z,0
2017-12-28T02:47:21.716Z,0
2017-12-28T02:48:21.492Z,0
2017-12-28T02:49:21.586Z,0
2017-12-28T02:50:21.694Z,0
2017-12-28T02:51:21.633Z,0
2017-12-28T02:52:21.821Z,0
2017-12-28T02:53:21.833Z,0
2017-12-28T02:54:22.096Z,0
2017-12-28T02:55:22.355Z,0
2017-12-28T02:56:22.497Z,0
2017-12-28T02:57:22.270Z,0
2017-12-28T02:58:22.326Z,0
2017-12-28T02:59:22.818Z,0
2017-12-28T03:00:22.308Z,0
2017-12-28T03:01:22.555Z,0
2017-12-28T03:02:23.033Z,0
2017-12-28T03:03:23.332Z,0
2017-12-28T03:04:23.092Z,0
2017-12-28T03:05:23.087Z,0
2017-12-28T03:06:23.773Z,0
2017-12-28T03:07:24.015Z,0
2017-12-28T03:08:24.021Z,0
2017-12-28T03:09:24.479Z,0
2017-12-28T03:10:24.728Z,0
2017-12-28T03:11:24.684Z,0
2017-12-28T03:12:25.408Z,0
2017-12-28T03:13:25.536Z,0
2017-12-28T03:14:25.104Z,0
2017-12-28T03:15:25.157Z,0
2017-12-28T03:16:25.734Z,0
2017-12-28T03:17:25.740Z,0
2017-12-28T03:18:26.078Z,0
2017-12-28T03:19:25.662Z,0
2017-12-28T03:20:26.173Z,0
2017-12-28T03:21:25.996Z,0
2017-12-28T03:22:26.065Z,0
2017-12-28T03:23:25.573Z,0
2017-12-28T03:24:25.828Z,0
2017-12-28T03:25:25.878Z,0
2017-12-28T03:26:26.410Z,0
2017-12-28T03:27:26.571Z,0
2017-12-28T03:28:26.843Z,0
2017-12-28T03:29:26.796Z,0
2017-12-28T03:30:26.697Z,0
2017-12-28T03:31:26.453Z,0
2017-12-28T03:32:27.084Z,0
2017-12-28T03:33:26.693Z,0
2017-12-28T03:34:27.416Z,0
2017-12-28T03:35:27.253Z,0
2017-12-28T03:36:27.202Z,0
2017-12-28T03:37:27.868Z,0
2017-12-28T03:38:27.278Z,0
2017-12-28T03:39:27.542Z,0
2017-12-28T03:40:28.036Z,0
2017-12-28T03:41:27.736Z,0
2017-12-28T03:42:28.174Z,0
2017-12-28T03:43:28.203Z,0
2017-12-28T03:44:28.473Z,0
2017-12-28T03:45:27.886Z,0
2017-12-28T03:46:28.508Z,0
2017-12-28T03:47:28.483Z,0
2017-12-28T03:48:27.927Z,0
2017-12-28T03:49:28.479Z,0
2017-12-28T03:50:28.645Z,0
2017-12-28T03:51:28.826Z,0
2017-12-28T03:52:29.481Z,0
2017-12-28T03:53:29.429Z,0
2017-12-28T03:54:29.474Z,0
2017-12-28T03:55:29.913Z,0
2017-12-28T03:56:30.078Z,0
2017-12-28T03:57:29.749Z,0
2017-12-28T03:58:30.427Z,0
2017-12-28T03:59:30.626Z,0
2017-12-28T04:00:30.518Z,0
2017-12-28T04:01:30.608Z,0
2017-12-28T04:02:31.314Z,0
2017-12-28T04:03:31.338Z,0
2017-12-28T04:04:30.930Z,0
2017-12-28T04:05:31.182Z,0
2017-12-28T04:06:31.355Z,0
2017-12-28T04:07:31.386Z,0
2017-12-28T04:08:31.453Z,0
2017-12-28T04:09:31.412Z,0
2017-12-28T04:10:32.100Z,0
2017-12-28T04:11:31.886Z,0
2017-12-28T04:12:32.394Z,0
2017-12-28T04:13:32.131Z,0
2017-12-28T04:14:31.899Z,0
2017-12-28T04:15:32.606Z,0
2017-12-28T04:16:32.896Z,0
2017-12-28T04:17:32.932Z,0
2017-12-28T04:18:33.000Z,0
2017-12-28T04:19:34.034Z,0
2017-12-28T04:20:33.318Z,0
2017-12-28T04:21:34.392Z,0
2017-12-28T04:22:33.607Z,0
2017-12-28T04:23:34.334Z,0
2017-12-28T04:24:34.209Z,0
2017-12-28T04:25:34.127Z,0
2017-12-28T04:26:34.389Z,0
2017-12-28T04:27:34.428Z,0
2017-12-28T04:28:34.936Z,0
2017-12-28T04:29:34.665Z,0
2017-12-28T04:30:35.073Z,0
2017-12-28T04:31:35.445Z,0
2017-12-28T04:32:34.861Z,0
2017-12-28T04:33:35.870Z,0
2017-12-28T04:34:35.965Z,0
2017-12-28T04:35:35.590Z,0
2017-12-28T04:36:35.820Z,0
2017-12-28T04:37:35.555Z,0
2017-12-28T04:38:36.378Z,0
2017-12-28T04:39:35.889Z,0
2017-12-28T04:40:36.341Z,0
2017-12-28T04:41:36.088Z,0
2017-12-28T04:42:36.315Z,0
2017-12-28T04:43:36.950Z,0
2017-12-28T04:44:38.156Z,0
2017-12-28T04:45:39.216Z,0
2017-12-28T04:46:53.130Z,0
2017-12-28T04:47:37.432Z,0
2017-12-28T04:48:38.080Z,0
2017-12-28T04:49:37.662Z,0
2017-12-28T04:50:37.166Z,0
2017-12-28T04:51:37.845Z,0
2017-12-28T04:52:38.186Z,0
2017-12-28T04:53:39.472Z,0
2017-12-28T04:54:38.299Z,0
2017-12-28T04:55:37.582Z,0
2017-12-28T04:56:37.402Z,0
2017-12-28T04:57:37.617Z,0
2017-12-28T04:58:37.430Z,0
2017-12-28T04:59:38.147Z,0
2017-12-28T05:01:10.057Z,0
2017-12-28T05:01:41.282Z,0
2017-12-28T05:02:41.254Z,0
2017-12-28T05:03:41.159Z,0
2017-12-28T05:04:42.236Z,0
2017-12-28T05:05:40.769Z,0
2017-12-28T05:06:42.806Z,0
2017-12-28T05:07:40.337Z,0
2017-12-28T05:08:41.257Z,0
2017-12-28T05:09:40.756Z,0
2017-12-28T05:10:41.693Z,0
2017-12-28T05:11:41.173Z,0
2017-12-28T05:12:41.141Z,0
2017-12-28T05:13:41.389Z,0
2017-12-28T05:14:42.200Z,0
2017-12-28T05:15:42.250Z,0
2017-12-28T05:16:41.747Z,0
2017-12-28T05:17:42.042Z,0
2017-12-28T05:18:42.396Z,0
2017-12-28T05:19:42.224Z,0
2017-12-28T05:20:42.734Z,0
2017-12-28T05:21:42.364Z,0
2017-12-28T05:22:42.396Z,0
2017-12-28T05:23:42.686Z,0
2017-12-28T05:24:43.448Z,0
2017-12-28T05:25:42.639Z,0
2017-12-28T05:26:43.014Z,0
2017-12-28T05:27:43.835Z,0
2017-12-28T05:28:44.331Z,0
2017-12-28T05:29:44.702Z,0
2017-12-28T05:30:44.619Z,0
2017-12-28T05:31:44.904Z,0
2017-12-28T05:32:45.402Z,0
2017-12-28T05:33:44.968Z,0
2017-12-28T05:34:45.676Z,0
2017-12-28T05:35:46.797Z,0
2017-12-28T05:36:46.365Z,0
2017-12-28T05:37:46.485Z,0
2017-12-28T05:38:46.777Z,0
2017-12-28T05:39:46.227Z,0
2017-12-28T05:40:46.191Z,0
2017-12-28T05:41:46.405Z,0
2017-12-28T05:42:46.360Z,0
2017-12-28T05:43:46.937Z,0
2017-12-28T05:44:47.200Z,0
2017-12-28T05:45:47.303Z,0
2017-12-28T05:46:46.404Z,0
2017-12-28T05:47:47.963Z,0
2017-12-28T05:48:47.128Z,0
2017-12-28T05:49:47.130Z,0
2017-12-28T05:50:47.602Z,0
2017-12-28T05:51:47.077Z,0
2017-12-28T05:52:47.999Z,0
2017-12-28T05:53:47.100Z,0
2017-12-28T05:54:47.497Z,0
2017-12-28T05:55:47.879Z,0
2017-12-28T05:56:47.898Z,0
2017-12-28T05:57:48.060Z,0
2017-12-28T05:58:48.098Z,0
2017-12-28T05:59:48.188Z,0
2017-12-28T06:00:48.516Z,0
2017-12-28T06:01:48.704Z,0
2017-12-28T06:02:48.857Z,0
2017-12-28T06:03:49.229Z,0
2017-12-28T06:04:49.467Z,0
2017-12-28T06:05:49.432Z,0
2017-12-28T06:06:49.071Z,0
2017-12-28T06:07:49.325Z,0
2017-12-28T06:08:49.314Z,0
2017-12-28T06:09:49.302Z,0
2017-12-28T06:10:49.689Z,0
2017-12-28T06:11:50.122Z,0
2017-12-28T06:12:49.941Z,0
2017-12-28T06:13:50.209Z,0
2017-12-28T06:14:50.006Z,0
2017-12-28T06:15:49.600Z,0
2017-12-28T06:16:50.257Z,0
2017-12-28T06:17:50.711Z,0
2017-12-28T06:18:50.552Z,0
2017-12-28T06:19:51.278Z,0
2017-12-28T06:20:51.346Z,0
2017-12-28T06:21:51.100Z,0
2017-12-28T06:22:50.536Z,0
2017-12-28T06:23:50.826Z,0
2017-12-28T06:24:51.106Z,0
2017-12-28T06:25:50.883Z,0
2017-12-28T06:26:51.119Z,0
2017-12-28T06:27:50.976Z,0
2017-12-28T06:28:51.448Z,0
2017-12-28T06:29:51.625Z,0
2017-12-28T06:30:52.383Z,0
2017-12-28T06:31:52.141Z,0
2017-12-28T06:32:52.589Z,0
2017-12-28T06:33:52.824Z,0
2017-12-28T06:34:53.021Z,0
2017-12-28T06:35:52.142Z,0
2017-12-28T06:36:52.727Z,0
2017-12-28T06:37:53.168Z,0
2017-12-28T06:38:53.047Z,0
2017-12-28T06:39:53.923Z,0
2017-12-28T06:40:53.696Z,0
2017-12-28T06:41:53.596Z,0
2017-12-28T06:42:54.173Z,0
2017-12-28T06:43:54.161Z,0
2017-12-28T06:44:53.937Z,0
2017-12-28T06:45:54.276Z,0
2017-12-28T06:46:54.536Z,0
2017-12-28T06:47:55.471Z,0
2017-12-28T06:48:55.111Z,0
2017-12-28T06:49:54.852Z,0
2017-12-28T06:50:55.229Z,0
2017-12-28T06:51:55.017Z,4
2017-12-28T06:52:54.935Z,4
2017-12-28T06:53:54.547Z,0
2017-12-28T06:54:55.029Z,4
2017-12-28T06:55:55.483Z,4
2017-12-28T06:56:55.754Z,4
2017-12-28T06:57:55.666Z,4
2017-12-28T06:58:55.648Z,4
2017-12-28T06:59:55.550Z,8
2017-12-28T07:00:55.803Z,4
2017-12-28T07:01:55.218Z,8
2017-12-28T07:02:55.484Z,12
2017-12-28T07:03:56.177Z,8
2017-12-28T07:04:56.337Z,8
2017-12-28T07:05:56.739Z,12
2017-12-28T07:06:57.162Z,12
2017-12-28T07:07:56.942Z,16
2017-12-28T07:08:56.685Z,16
2017-12-28T07:09:57.163Z,16
2017-12-28T07:10:56.411Z,20
2017-12-28T07:11:57.207Z,20
2017-12-28T07:12:57.025Z,24
2017-12-28T07:13:58.593Z,28
2017-12-28T07:14:56.780Z,28
2017-12-28T07:15:57.504Z,32
2017-12-28T07:16:57.089Z,32
2017-12-28T07:17:58.396Z,32
2017-12-28T07:18:58.792Z,40
2017-12-28T07:19:59.260Z,40
2017-12-28T07:20:58.532Z,44
2017-12-28T07:21:58.954Z,44
2017-12-28T07:22:58.708Z,52
2017-12-28T07:23:58.583Z,52
2017-12-28T07:24:59.156Z,56
2017-12-28T07:25:59.403Z,60
2017-12-28T07:26:59.988Z,64
2017-12-28T07:27:59.935Z,68
2017-12-28T07:28:59.996Z,72
2017-12-28T07:29:59.698Z,80
2017-12-28T07:31:00.127Z,84
2017-12-28T07:31:59.541Z,92
2017-12-28T07:33:00.261Z,96
2017-12-28T07:34:00.385Z,100
2017-12-28T07:35:01.262Z,104
2017-12-28T07:36:02.742Z,112
2017-12-28T07:37:01.737Z,116
2017-12-28T07:38:01.498Z,124
2017-12-28T07:39:01.792Z,132
2017-12-28T07:40:02.625Z,140
2017-12-28T07:41:01.313Z,148
2017-12-28T07:42:01.709Z,156
2017-12-28T07:43:01.056Z,160
2017-12-28T07:44:02.308Z,168
2017-12-28T07:45:01.901Z,176
2017-12-28T07:46:01.591Z,180
2017-12-28T07:47:01.580Z,188
2017-12-28T07:48:01.248Z,196
2017-12-28T07:49:02.677Z,204
2017-12-28T07:50:01.519Z,212
2017-12-28T07:51:01.158Z,224
2017-12-28T07:52:02.196Z,232
2017-12-28T07:53:01.944Z,236
2017-12-28T07:54:02.100Z,248
2017-12-28T07:55:01.997Z,256
2017-12-28T07:56:02.531Z,256
2017-12-28T07:57:02.929Z,264
2017-12-28T07:58:03.714Z,268
2017-12-28T07:59:03.204Z,268
2017-12-28T08:00:03.292Z,276
2017-12-28T08:01:03.440Z,280
2017-12-28T08:02:03.210Z,288
2017-12-28T08:03:03.341Z,296
2017-12-28T08:04:04.028Z,312
2017-12-28T08:05:03.420Z,324
2017-12-28T08:06:04.335Z,336
2017-12-28T08:07:04.329Z,348
2017-12-28T08:08:04.836Z,360
2017-12-28T08:09:05.282Z,372
2017-12-28T08:10:04.609Z,380
2017-12-28T08:11:04.570Z,392
2017-12-28T08:12:04.569Z,400
2017-12-28T08:13:04.742Z,412
2017-12-28T08:14:05.002Z,428
2017-12-28T08:15:05.800Z,440
2017-12-28T08:16:05.782Z,456
2017-12-28T08:17:05.664Z,476
2017-12-28T08:18:06.117Z,496
2017-12-28T08:19:06.182Z,512
2017-12-28T08:20:06.207Z,540
2017-12-28T08:21:06.260Z,572
2017-12-28T08:22:06.700Z,600
2017-12-28T08:23:06.484Z,628
2017-12-28T08:24:06.183Z,660
2017-12-28T08:25:06.909Z,684
2017-12-28T08:26:06.259Z,700
2017-12-28T08:27:06.337Z,712
2017-12-28T08:28:06.265Z,728
2017-12-28T08:29:07.053Z,744
2017-12-28T08:30:07.785Z,756
2017-12-28T08:31:07.395Z,760
2017-12-28T08:32:07.553Z,776
2017-12-28T08:33:08.562Z,796
2017-12-28T08:34:08.281Z,812
2017-12-28T08:35:08.363Z,832
2017-12-28T08:36:08.769Z,852
2017-12-28T08:37:08.767Z,876
2017-12-28T08:38:08.420Z,904
2017-12-28T08:39:08.722Z,928
2017-12-28T08:40:07.788Z,948
2017-12-28T08:41:08.238Z,960
2017-12-28T08:42:08.361Z,972
2017-12-28T08:43:09.686Z,976
2017-12-28T08:44:09.533Z,1000
2017-12-28T08:45:09.469Z,1024
2017-12-28T08:46:09.030Z,1060
2017-12-28T08:47:09.713Z,1104
2017-12-28T08:48:09.905Z,1148
2017-12-28T08:49:10.033Z,1192
2017-12-28T08:50:10.212Z,1232
2017-12-28T08:51:09.607Z,1268
2017-12-28T08:52:10.095Z,1292
2017-12-28T08:53:10.345Z,1308
2017-12-28T08:54:10.929Z,1316
2017-12-28T08:55:11.313Z,1332
2017-12-28T08:56:11.282Z,1316
2017-12-28T08:57:11.053Z,1264
2017-12-28T08:58:11.152Z,1268
2017-12-28T08:59:08.973Z,1288
2017-12-28T09:01:08.133Z,1352
2017-12-28T09:01:24.041Z,1364
2017-12-28T09:02:24.841Z,1400
2017-12-28T09:03:24.417Z,1444
2017-12-28T09:04:24.579Z,1468
2017-12-28T09:05:24.041Z,1572
2017-12-28T09:06:25.294Z,1568
2017-12-28T09:07:25.251Z,1588
2017-12-28T09:08:25.517Z,1560
2017-12-28T09:09:26.173Z,1612
2017-12-28T09:10:24.355Z,1680
2017-12-28T09:11:24.622Z,1624
2017-12-28T09:12:25.340Z,1664
2017-12-28T09:13:25.009Z,1692
2017-12-28T09:14:25.979Z,1624
2017-12-28T09:15:26.527Z,1576
2017-12-28T09:16:25.354Z,1580
2017-12-28T09:17:25.338Z,1592
2017-12-28T09:18:25.445Z,1660
2017-12-28T09:19:25.974Z,1700
2017-12-28T09:20:25.567Z,1696
2017-12-28T09:21:26.167Z,1648
2017-12-28T09:22:25.997Z,1620
2017-12-28T09:23:26.672Z,1532
2017-12-28T09:24:26.160Z,1456
2017-12-28T09:25:26.182Z,1396
2017-12-28T09:26:26.107Z,1384
2017-12-28T09:27:26.526Z,1460
2017-12-28T09:28:26.771Z,1416
2017-12-28T09:29:26.274Z,1252
2017-12-28T09:30:26.535Z,1216
2017-12-28T09:31:26.714Z,1232
2017-12-28T09:32:26.739Z,1208
2017-12-28T09:33:26.778Z,1152
2017-12-28T09:34:27.414Z,1120
2017-12-28T09:35:27.357Z,1180
2017-12-28T09:36:27.309Z,1324
2017-12-28T09:37:27.438Z,1404
2017-12-28T09:38:28.460Z,1444
2017-12-28T09:39:28.792Z,1592
2017-12-28T09:40:28.154Z,1720
2017-12-28T09:41:29.352Z,1716
2017-12-28T09:42:28.661Z,1760
2017-12-28T09:43:29.180Z,1776
2017-12-28T09:44:27.950Z,1800
2017-12-28T09:45:28.475Z,1848
2017-12-28T09:46:28.700Z,1908
2017-12-28T09:47:27.966Z,1960
2017-12-28T09:48:27.933Z,1788
2017-12-28T09:49:27.784Z,1900
2017-12-28T09:50:28.052Z,2052
2017-12-28T09:51:28.097Z,2136
2017-12-28T09:52:28.187Z,2084
2017-12-28T09:53:28.521Z,2080
2017-12-28T09:54:27.814Z,2172
2017-12-28T09:55:27.837Z,2216
2017-12-28T09:56:28.164Z,2288
2017-12-28T09:57:27.864Z,2308
2017-12-28T09:58:28.317Z,2268
2017-12-28T09:59:28.420Z,2396
2017-12-28T10:00:28.244Z,2396
2017-12-28T10:01:28.253Z,2400
2017-12-28T10:02:27.753Z,2428
2017-12-28T10:03:28.307Z,2492
2017-12-28T10:04:28.410Z,2504
2017-12-28T10:05:28.886Z,2476
2017-12-28T10:06:28.882Z,2472
2017-12-28T10:07:28.507Z,2444
2017-12-28T10:08:29.500Z,2400
2017-12-28T10:09:29.105Z,2340
2017-12-28T10:10:29.486Z,2404
2017-12-28T10:11:30.323Z,2344
2017-12-28T10:12:30.220Z,2416
2017-12-28T10:13:30.725Z,2392
2017-12-28T10:14:30.945Z,2252
2017-12-28T10:15:30.754Z,2156
2017-12-28T10:16:30.906Z,2132
2017-12-28T10:17:32.081Z,2016
2017-12-28T10:18:31.287Z,2060
2017-12-28T10:19:32.201Z,1820
2017-12-28T10:20:32.106Z,1920
2017-12-28T10:21:31.672Z,1924
2017-12-28T10:22:32.479Z,1792
2017-12-28T10:23:32.577Z,1776
2017-12-28T10:24:32.121Z,1652
2017-12-28T10:25:32.003Z,1824
2017-12-28T10:26:32.108Z,1808
2017-12-28T10:27:32.605Z,1804
2017-12-28T10:28:31.976Z,1888
2017-12-28T10:29:32.618Z,1884
2017-12-28T10:30:32.358Z,1796
2017-12-28T10:31:31.647Z,1848
2017-12-28T10:32:31.820Z,1780
2017-12-28T10:33:31.732Z,1596
2017-12-28T10:34:32.005Z,1760
2017-12-28T10:35:31.989Z,1696
2017-12-28T10:36:31.708Z,1568
2017-12-28T10:37:31.042Z,1580
2017-12-28T10:38:30.842Z,1548
2017-12-28T10:39:31.048Z,1548
2017-12-28T10:40:31.305Z,1692
2017-12-28T10:41:31.431Z,1648
2017-12-28T10:42:31.548Z,1772
2017-12-28T10:43:31.871Z,1784
2017-12-28T10:44:31.439Z,1672
2017-12-28T10:45:31.645Z,1788
2017-12-28T10:46:31.662Z,1736
2017-12-28T10:47:32.202Z,1484
2017-12-28T10:48:32.212Z,1628
2017-12-28T10:49:32.215Z,1772
2017-12-28T10:50:32.020Z,2064
2017-12-28T10:51:31.761Z,2072
2017-12-28T10:52:32.029Z,1916
2017-12-28T10:53:32.767Z,1952
2017-12-28T10:54:32.538Z,1976
2017-12-28T10:55:32.584Z,1908
2017-12-28T10:56:32.608Z,2068
2017-12-28T10:57:32.298Z,1928
2017-12-28T10:58:32.620Z,2108
2017-12-28T10:59:32.633Z,2020
2017-12-28T11:00:33.003Z,2020
2017-12-28T11:01:32.783Z,2048
2017-12-28T11:02:33.584Z,1928
2017-12-28T11:03:33.627Z,2080
2017-12-28T11:04:33.505Z,1696
2017-12-28T11:05:33.042Z,1560
2017-12-28T11:06:33.799Z,1632
2017-12-28T11:07:33.270Z,1804
2017-12-28T11:08:33.717Z,1772
2017-12-28T11:09:33.522Z,1864
2017-12-28T11:10:34.100Z,1588
2017-12-28T11:11:33.781Z,1776
2017-12-28T11:12:33.711Z,1948
2017-12-28T11:13:33.533Z,2108
2017-12-28T11:14:34.057Z,1972
2017-12-28T11:15:34.002Z,1928
2017-12-28T11:16:33.965Z,2052
2017-12-28T11:17:35.269Z,2044
2017-12-28T11:18:34.703Z,1908
2017-12-28T11:19:34.679Z,1604
2017-12-28T11:20:34.459Z,1628
2017-12-28T11:21:36.236Z,1496
2017-12-28T11:22:34.879Z,1512
2017-12-28T11:23:35.708Z,1488
2017-12-28T11:24:34.930Z,1384
2017-12-28T11:25:35.273Z,1460
2017-12-28T11:26:35.952Z,1444
2017-12-28T11:27:35.582Z,1532
2017-12-28T11:28:35.902Z,1520
2017-12-28T11:29:36.229Z,1452
2017-12-28T11:30:36.073Z,1772
2017-12-28T11:31:36.769Z,1816
2017-12-28T11:32:35.752Z,1688
2017-12-28T11:33:36.047Z,1528
2017-12-28T11:34:36.936Z,1428
2017-12-28T11:35:36.771Z,1700
2017-12-28T11:36:36.772Z,1644
2017-12-28T11:38:38.626Z,1744
2017-12-28T11:39:38.771Z,1988
2017-12-28T11:40:39.459Z,1916
2017-12-28T11:41:38.433Z,1912
2017-12-28T11:42:38.455Z,2032
2017-12-28T11:43:38.765Z,2316
2017-12-28T11:44:39.310Z,2268
2017-12-28T11:46:37.472Z,2284
2017-12-28T11:47:39.193Z,1976
2017-12-28T11:48:38.213Z,2248
2017-12-28T11:49:38.865Z,2292
2017-12-28T11:50:37.580Z,2200
2017-12-28T11:51:37.661Z,2348
2017-12-28T11:52:37.894Z,2020
2017-12-28T11:53:37.658Z,1936
2017-12-28T11:54:37.230Z,2316
2017-12-28T11:55:37.785Z,2416
2017-12-28T11:56:52.354Z,2212
2017-12-28T11:57:37.771Z,2100
2017-12-28T11:58:37.518Z,2380
2017-12-28T11:59:37.980Z,2348
2017-12-28T12:00:38.865Z,2200
2017-12-28T12:01:38.316Z,2156
2017-12-28T12:02:38.867Z,2260
2017-12-28T12:03:38.559Z,2124
2017-12-28T12:04:39.205Z,1984
2017-12-28T12:05:38.280Z,1916
2017-12-28T12:06:38.465Z,1928
2017-12-28T12:07:38.595Z,2100
2017-12-28T12:08:38.849Z,2040
2017-12-28T12:09:38.911Z,1976
2017-12-28T12:10:39.320Z,1812
2017-12-28T12:11:39.357Z,1720
2017-12-28T12:12:39.860Z,1792
2017-12-28T12:13:40.514Z,1744
2017-12-28T12:14:40.399Z,1816
2017-12-28T12:15:40.938Z,1616
2017-12-28T12:16:41.486Z,1700
2017-12-28T12:17:41.269Z,1648
2017-12-28T12:18:41.743Z,1604
2017-12-28T12:19:41.441Z,1588
2017-12-28T12:20:40.968Z,1776
2017-12-28T12:21:40.711Z,1776
2017-12-28T12:22:41.443Z,1804
2017-12-28T12:23:41.364Z,1720
2017-12-28T12:24:41.588Z,1756
2017-12-28T12:25:42.037Z,1748
2017-12-28T12:26:41.164Z,1788
2017-12-28T12:27:41.506Z,1808
2017-12-28T12:28:41.478Z,1776
2017-12-28T12:29:42.288Z,1756
2017-12-28T12:30:41.991Z,1912
2017-12-28T12:31:42.105Z,1992
2017-12-28T12:32:41.550Z,1888
2017-12-28T12:33:41.952Z,1908
2017-12-28T12:34:41.992Z,1888
2017-12-28T12:35:42.510Z,1860
2017-12-28T12:36:42.423Z,1832
2017-12-28T12:37:42.487Z,1808
2017-12-28T12:38:42.916Z,1664
2017-12-28T12:39:43.303Z,1684
2017-12-28T12:40:42.895Z,1596
2017-12-28T12:41:43.056Z,1480
2017-12-28T12:42:43.482Z,1592
2017-12-28T12:43:43.429Z,1648
2017-12-28T12:44:44.058Z,1728
2017-12-28T12:45:43.971Z,1632
2017-12-28T12:46:43.976Z,1656
2017-12-28T12:47:44.404Z,1660
2017-12-28T12:48:44.566Z,1716
2017-12-28T12:49:44.777Z,1500
2017-12-28T12:50:44.459Z,1448
2017-12-28T12:51:44.833Z,1528
2017-12-28T12:52:44.750Z,1376
2017-12-28T12:53:45.082Z,1332
2017-12-28T12:54:45.240Z,1368
2017-12-28T12:55:45.620Z,1396
2017-12-28T12:56:46.137Z,1468
2017-12-28T12:57:45.897Z,1452
2017-12-28T12:58:46.220Z,1420
2017-12-28T12:59:46.424Z,1312
2017-12-28T13:00:46.545Z,1372
2017-12-28T13:01:46.794Z,1376
2017-12-28T13:02:47.071Z,1400
2017-12-28T13:03:47.109Z,1336
2017-12-28T13:04:47.845Z,1180
2017-12-28T13:05:47.992Z,1072
2017-12-28T13:06:48.467Z,1032
2017-12-28T13:07:48.665Z,1228
2017-12-28T13:08:49.436Z,1184
2017-12-28T13:09:49.174Z,1176
2017-12-28T13:10:49.004Z,1108
2017-12-28T13:11:50.955Z,1172
2017-12-28T13:12:49.202Z,1224
2017-12-28T13:13:49.240Z,1144
2017-12-28T13:14:49.364Z,1164
2017-12-28T13:15:49.570Z,1268
2017-12-28T13:16:49.003Z,1184
2017-12-28T13:17:49.619Z,1100
2017-12-28T13:18:50.019Z,1120
2017-12-28T13:19:49.966Z,1104
2017-12-28T13:20:50.938Z,1088
2017-12-28T13:21:50.184Z,1060
2017-12-28T13:22:50.691Z,1140
2017-12-28T13:23:50.822Z,1184
2017-12-28T13:24:49.964Z,1212
2017-12-28T13:25:50.825Z,1160
2017-12-28T13:26:50.858Z,1120
2017-12-28T13:27:50.292Z,1092
2017-12-28T13:28:50.600Z,1076
2017-12-28T13:29:50.765Z,1080
2017-12-28T13:30:51.203Z,1140
2017-12-28T13:31:51.163Z,1108
2017-12-28T13:32:51.838Z,1068
2017-12-28T13:33:51.855Z,1040
2017-12-28T13:34:52.402Z,1052
2017-12-28T13:35:52.041Z,1072
2017-12-28T13:36:51.914Z,1072
2017-12-28T13:37:51.802Z,996
2017-12-28T13:38:52.656Z,972
2017-12-28T13:39:53.508Z,1000
2017-12-28T13:40:52.950Z,1012
2017-12-28T13:41:53.425Z,944
2017-12-28T13:42:52.988Z,996
2017-12-28T13:43:53.507Z,1048
2017-12-28T13:44:53.858Z,1040
2017-12-28T13:45:54.175Z,1016
2017-12-28T13:46:53.329Z,964
2017-12-28T13:47:53.958Z,948
2017-12-28T13:48:53.621Z,944
2017-12-28T13:49:53.894Z,924
2017-12-28T13:50:53.803Z,948
2017-12-28T13:51:53.992Z,968
2017-12-28T13:52:55.317Z,936
2017-12-28T13:53:54.233Z,948
2017-12-28T13:54:55.432Z,916
2017-12-28T13:55:56.058Z,884
2017-12-28T13:56:54.566Z,808
2017-12-28T13:57:54.060Z,872
2017-12-28T13:58:54.683Z,892
2017-12-28T13:59:56.075Z,900
2017-12-28T14:00:55.500Z,884
2017-12-28T14:01:55.088Z,848
2017-12-28T14:02:53.877Z,832
2017-12-28T14:03:55.833Z,796
2017-12-28T14:04:55.487Z,776
2017-12-28T14:05:54.551Z,764
2017-12-28T14:06:55.549Z,736
2017-12-28T14:07:55.071Z,724
2017-12-28T14:08:55.421Z,704
2017-12-28T14:09:54.902Z,720